createdAt,value
2019-03-31T00:00:40.140Z,11.95
2019-03-31T00:01:51.399Z,13.43
2019-03-31T00:02:54.731Z,13.78
2019-03-31T00:03:58.041Z,14.85
2019-03-31T00:05:01.438Z,13.95
2019-03-31T00:06:04.822Z,13.95
2019-03-31T00:07:08.210Z,14.75
2019-03-31T00:08:11.896Z,16.77
2019-03-31T00:09:15.074Z,12.43
2019-03-31T00:10:18.612Z,12.68
2019-03-31T00:11:21.846Z,15.25
2019-03-31T00:12:25.003Z,14.98
2019-03-31T00:13:29.257Z,13.58
2019-03-31T00:14:32.941Z,14.15
2019-03-31T00:15:36.078Z,13.93
2019-03-31T00:16:39.563Z,13.78
2019-03-31T00:17:42.790Z,13.20
2019-03-31T00:18:46.141Z,16.75
2019-03-31T00:19:49.543Z,14.93
2019-03-31T00:20:52.827Z,13.00
2019-03-31T00:21:56.300Z,15.05
2019-03-31T00:22:59.447Z,15.10
2019-03-31T00:24:02.670Z,14.90
2019-03-31T00:25:06.306Z,15.63
2019-03-31T00:26:09.671Z,20.60
2019-03-31T00:27:12.969Z,16.07
2019-03-31T00:28:16.486Z,15.10
2019-03-31T00:29:20.054Z,14.80
2019-03-31T00:30:23.929Z,16.90
2019-03-31T00:31:27.156Z,13.10
2019-03-31T00:32:30.376Z,13.45
2019-03-31T00:33:35.446Z,13.35
2019-03-31T00:34:38.726Z,14.33
2019-03-31T00:35:41.999Z,14.90
2019-03-31T00:36:45.397Z,14.58
2019-03-31T00:37:48.629Z,14.98
2019-03-31T00:38:51.805Z,12.35
2019-03-31T00:39:55.261Z,14.53
2019-03-31T00:40:58.430Z,14.75
2019-03-31T00:42:01.571Z,14.83
2019-03-31T00:43:04.766Z,14.90
2019-03-31T00:44:07.900Z,12.70
2019-03-31T00:45:11.312Z,13.13
2019-03-31T00:46:14.703Z,13.48
2019-03-31T00:47:18.122Z,13.03
2019-03-31T00:48:21.612Z,15.63
2019-03-31T00:49:25.889Z,14.58
2019-03-31T00:50:29.041Z,14.38
2019-03-31T00:51:32.266Z,14.10
2019-03-31T00:52:35.506Z,15.18
2019-03-31T00:53:39.132Z,13.50
2019-03-31T00:54:42.379Z,15.63
2019-03-31T00:55:45.528Z,15.23
2019-03-31T00:56:48.821Z,15.68
2019-03-31T00:57:52.224Z,13.30
2019-03-31T00:58:55.492Z,15.23
2019-03-31T00:59:58.771Z,18.55
2019-03-31T01:01:36.244Z,14.95
2019-03-31T01:02:33.109Z,12.47
2019-03-31T01:03:36.291Z,14.90
2019-03-31T01:04:39.647Z,16.27
2019-03-31T01:05:43.105Z,12.88
2019-03-31T01:06:50.287Z,12.82
2019-03-31T01:07:53.644Z,14.75
2019-03-31T01:08:58.038Z,14.40
2019-03-31T01:10:02.523Z,14.18
2019-03-31T01:11:12.644Z,16.67
2019-03-31T01:12:17.249Z,12.90
2019-03-31T01:13:20.542Z,13.20
2019-03-31T01:14:24.352Z,13.53
2019-03-31T01:15:28.330Z,14.53
2019-03-31T01:16:32.424Z,15.35
2019-03-31T01:17:35.639Z,17.17
2019-03-31T01:18:38.885Z,15.40
2019-03-31T01:19:42.428Z,17.23
2019-03-31T01:20:46.189Z,14.90
2019-03-31T01:21:49.494Z,12.73
2019-03-31T01:22:52.684Z,12.82
2019-03-31T01:23:55.841Z,14.87
2019-03-31T01:24:59.017Z,14.80
2019-03-31T01:26:02.403Z,13.28
2019-03-31T01:27:08.403Z,12.35
2019-03-31T01:28:11.600Z,14.58
2019-03-31T01:29:15.470Z,15.85
2019-03-31T01:30:19.363Z,14.40
2019-03-31T01:31:29.918Z,14.58
2019-03-31T01:32:33.714Z,14.50
2019-03-31T01:33:37.199Z,12.90
2019-03-31T01:34:40.548Z,15.50
2019-03-31T01:35:43.693Z,14.38
2019-03-31T01:36:47.227Z,14.07
2019-03-31T01:37:50.400Z,15.15
2019-03-31T01:38:53.659Z,11.88
2019-03-31T01:39:56.947Z,14.05
2019-03-31T01:41:00.222Z,15.80
2019-03-31T01:42:03.714Z,14.87
2019-03-31T01:43:07.112Z,13.70
2019-03-31T01:44:10.386Z,14.60
2019-03-31T01:45:13.739Z,15.13
2019-03-31T01:46:19.205Z,17.32
2019-03-31T01:47:22.457Z,15.10
2019-03-31T01:48:25.666Z,12.95
2019-03-31T01:49:29.051Z,14.28
2019-03-31T01:50:32.685Z,15.23
2019-03-31T01:51:35.959Z,12.75
2019-03-31T01:52:39.258Z,14.80
2019-03-31T01:53:42.656Z,14.18
2019-03-31T01:54:45.840Z,12.82
2019-03-31T01:55:49.006Z,14.78
2019-03-31T01:56:52.179Z,14.07
2019-03-31T01:57:56.032Z,13.58
2019-03-31T01:58:59.387Z,15.78
2019-03-31T02:00:03.693Z,14.07
2019-03-31T02:01:08.668Z,14.47
2019-03-31T02:02:17.086Z,14.87
2019-03-31T02:03:20.775Z,14.13
2019-03-31T02:04:24.163Z,11.22
2019-03-31T02:05:27.624Z,13.98
2019-03-31T02:06:31.027Z,12.55
2019-03-31T02:07:34.598Z,13.60
2019-03-31T02:08:37.974Z,17.90
2019-03-31T02:09:41.288Z,13.72
2019-03-31T02:10:44.515Z,15.98
2019-03-31T02:11:47.666Z,15.18
2019-03-31T02:12:50.969Z,13.78
2019-03-31T02:13:54.507Z,13.40
2019-03-31T02:14:58.071Z,12.90
2019-03-31T02:16:01.310Z,14.58
2019-03-31T02:17:04.641Z,12.95
2019-03-31T02:18:08.106Z,14.47
2019-03-31T02:19:11.446Z,14.33
2019-03-31T02:20:14.613Z,14.68
2019-03-31T02:21:17.958Z,14.23
2019-03-31T02:22:21.284Z,14.53
2019-03-31T02:23:24.724Z,13.10
2019-03-31T02:24:28.075Z,14.10
2019-03-31T02:25:31.231Z,15.53
2019-03-31T02:26:34.427Z,13.03
2019-03-31T02:27:37.806Z,15.98
2019-03-31T02:28:41.562Z,13.22
2019-03-31T02:29:44.781Z,15.50
2019-03-31T02:30:48.025Z,14.87
2019-03-31T02:31:51.372Z,14.10
2019-03-31T02:32:54.606Z,16.52
2019-03-31T02:33:57.769Z,14.83
2019-03-31T02:35:01.073Z,15.43
2019-03-31T02:36:04.249Z,13.43
2019-03-31T02:37:07.824Z,12.37
2019-03-31T02:38:11.230Z,13.53
2019-03-31T02:39:14.457Z,15.98
2019-03-31T02:40:18.006Z,12.78
2019-03-31T02:41:21.139Z,15.88
2019-03-31T02:42:24.330Z,17.07
2019-03-31T02:43:27.554Z,16.50
2019-03-31T02:44:30.744Z,14.68
2019-03-31T02:45:34.009Z,13.03
2019-03-31T02:46:37.335Z,14.58
2019-03-31T02:47:40.874Z,15.50
2019-03-31T02:48:44.290Z,16.60
2019-03-31T02:49:47.934Z,17.23
2019-03-31T02:50:51.308Z,18.62
2019-03-31T02:51:54.528Z,15.72
2019-03-31T02:52:57.723Z,16.10
2019-03-31T02:54:00.929Z,14.68
2019-03-31T02:55:04.294Z,16.80
2019-03-31T02:56:08.095Z,15.40
2019-03-31T02:57:12.161Z,13.08
2019-03-31T02:58:16.447Z,16.42
2019-03-31T02:59:19.812Z,16.27
2019-03-31T03:00:23.263Z,16.27
2019-03-31T03:01:28.637Z,14.05
2019-03-31T03:02:42.311Z,15.23
2019-03-31T03:03:39.905Z,14.78
2019-03-31T03:04:43.540Z,17.27
2019-03-31T03:05:48.003Z,14.47
2019-03-31T03:06:52.821Z,16.07
2019-03-31T03:07:57.489Z,15.25
2019-03-31T03:09:01.589Z,13.75
2019-03-31T03:10:05.392Z,12.07
2019-03-31T03:11:09.929Z,15.48
2019-03-31T03:12:15.197Z,14.90
2019-03-31T03:13:21.457Z,14.78
2019-03-31T03:14:28.795Z,12.23
2019-03-31T03:15:35.550Z,13.35
2019-03-31T03:16:38.727Z,14.10
2019-03-31T03:17:41.871Z,18.40
2019-03-31T03:18:46.010Z,16.45
2019-03-31T03:19:49.292Z,13.30
2019-03-31T03:20:52.439Z,13.43
2019-03-31T03:21:55.675Z,16.27
2019-03-31T03:22:58.949Z,17.12
2019-03-31T03:24:03.369Z,14.50
2019-03-31T03:25:06.529Z,17.25
2019-03-31T03:26:09.900Z,14.60
2019-03-31T03:27:13.317Z,16.12
2019-03-31T03:28:16.783Z,18.73
2019-03-31T03:29:21.171Z,14.58
2019-03-31T03:30:24.435Z,15.10
2019-03-31T03:31:27.895Z,13.50
2019-03-31T03:32:31.114Z,14.90
2019-03-31T03:33:37.352Z,13.58
2019-03-31T03:34:40.512Z,16.02
2019-03-31T03:35:45.055Z,15.13
2019-03-31T03:36:48.330Z,14.23
2019-03-31T03:37:51.601Z,15.58
2019-03-31T03:38:54.705Z,14.18
2019-03-31T03:39:57.879Z,13.75
2019-03-31T03:41:01.067Z,13.03
2019-03-31T03:42:04.547Z,14.25
2019-03-31T03:43:07.671Z,18.23
2019-03-31T03:44:10.853Z,16.30
2019-03-31T03:45:14.019Z,14.07
2019-03-31T03:46:17.316Z,13.35
2019-03-31T03:47:20.626Z,13.55
2019-03-31T03:48:23.886Z,15.23
2019-03-31T03:49:27.194Z,14.00
2019-03-31T03:50:30.387Z,12.65
2019-03-31T03:51:33.735Z,14.58
2019-03-31T03:52:36.955Z,12.13
2019-03-31T03:53:40.405Z,14.87
2019-03-31T03:54:43.562Z,13.18
2019-03-31T03:55:46.870Z,15.05
2019-03-31T03:56:50.162Z,14.53
2019-03-31T03:57:53.656Z,13.03
2019-03-31T03:58:56.985Z,13.85
2019-03-31T04:00:00.708Z,14.58
2019-03-31T04:01:11.405Z,16.50
2019-03-31T04:02:14.663Z,13.18
2019-03-31T04:03:29.828Z,14.18
2019-03-31T04:04:23.175Z,13.35
2019-03-31T04:05:26.486Z,11.00
2019-03-31T04:06:29.646Z,13.28
2019-03-31T04:07:33.022Z,15.32
2019-03-31T04:08:36.319Z,15.05
2019-03-31T04:09:39.596Z,14.53
2019-03-31T04:11:09.657Z,13.60
2019-03-31T04:12:12.801Z,13.43
2019-03-31T04:13:16.103Z,13.10
2019-03-31T04:14:19.553Z,12.88
2019-03-31T04:15:22.824Z,15.15
2019-03-31T04:16:26.348Z,18.52
2019-03-31T04:17:29.815Z,14.85
2019-03-31T04:18:33.056Z,15.05
2019-03-31T04:19:36.241Z,12.18
2019-03-31T04:20:39.836Z,13.65
2019-03-31T04:21:43.209Z,16.90
2019-03-31T04:22:46.366Z,14.98
2019-03-31T04:23:49.655Z,14.53
2019-03-31T04:24:52.816Z,13.53
2019-03-31T04:25:56.156Z,14.60
2019-03-31T04:26:59.544Z,13.90
2019-03-31T04:28:02.716Z,15.50
2019-03-31T04:29:05.874Z,12.78
2019-03-31T04:30:09.326Z,16.75
2019-03-31T04:31:12.510Z,14.45
2019-03-31T04:32:16.211Z,14.78
2019-03-31T04:33:19.698Z,13.13
2019-03-31T04:34:23.024Z,13.62
2019-03-31T04:35:26.249Z,12.30
2019-03-31T04:36:29.538Z,14.30
2019-03-31T04:37:32.913Z,13.98
2019-03-31T04:38:36.239Z,13.43
2019-03-31T04:39:39.683Z,13.62
2019-03-31T04:40:42.923Z,14.58
2019-03-31T04:41:46.369Z,13.15
2019-03-31T04:42:49.711Z,14.73
2019-03-31T04:43:52.983Z,16.30
2019-03-31T04:44:56.234Z,15.80
2019-03-31T04:46:00.836Z,13.48
2019-03-31T04:47:04.005Z,15.85
2019-03-31T04:48:07.494Z,23.95
2019-03-31T04:49:10.810Z,15.55
2019-03-31T04:50:13.983Z,17.45
2019-03-31T04:51:17.449Z,16.32
2019-03-31T04:52:20.606Z,17.15
2019-03-31T04:53:23.785Z,19.90
2019-03-31T04:54:26.960Z,19.48
2019-03-31T04:55:30.128Z,24.05
2019-03-31T04:56:33.344Z,20.45
2019-03-31T04:57:36.607Z,18.57
2019-03-31T04:58:39.790Z,16.40
2019-03-31T04:59:42.977Z,18.12
2019-03-31T05:00:46.124Z,19.70
2019-03-31T05:01:49.440Z,17.15
2019-03-31T05:02:52.688Z,18.05
2019-03-31T05:04:04.485Z,19.12
2019-03-31T05:05:01.058Z,20.75
2019-03-31T05:06:04.479Z,19.02
2019-03-31T05:07:07.852Z,20.02
2019-03-31T05:08:11.894Z,22.37
2019-03-31T05:09:15.059Z,18.87
2019-03-31T05:10:18.526Z,18.12
2019-03-31T05:11:22.797Z,19.10
2019-03-31T05:12:26.038Z,20.45
2019-03-31T05:13:29.403Z,18.45
2019-03-31T05:14:32.759Z,19.57
2019-03-31T05:15:35.995Z,14.40
2019-03-31T05:16:39.264Z,17.05
2019-03-31T05:17:42.534Z,17.50
2019-03-31T05:18:45.804Z,19.05
2019-03-31T05:19:50.370Z,21.17
2019-03-31T05:20:53.590Z,20.30
2019-03-31T05:21:56.900Z,19.67
2019-03-31T05:23:00.177Z,24.02
2019-03-31T05:24:03.560Z,26.27
2019-03-31T05:25:06.926Z,22.00
2019-03-31T05:26:10.436Z,26.42
2019-03-31T05:27:13.912Z,21.23
2019-03-31T05:28:17.404Z,24.82
2019-03-31T05:29:20.659Z,25.40
2019-03-31T05:30:24.034Z,22.40
2019-03-31T05:31:27.439Z,26.35
2019-03-31T05:32:30.957Z,29.05
2019-03-31T05:33:34.205Z,23.30
2019-03-31T05:34:37.686Z,19.70
2019-03-31T05:35:40.981Z,27.10
2019-03-31T05:36:44.525Z,25.77
2019-03-31T05:37:51.093Z,26.12
2019-03-31T05:38:53.615Z,23.62
2019-03-31T05:39:56.795Z,23.95
2019-03-31T05:41:00.188Z,31.62
2019-03-31T05:42:03.585Z,27.93
2019-03-31T05:43:06.948Z,24.15
2019-03-31T05:44:10.391Z,34.55
2019-03-31T05:45:13.833Z,29.00
2019-03-31T05:46:17.258Z,25.62
2019-03-31T05:47:20.433Z,24.75
2019-03-31T05:48:23.592Z,25.57
2019-03-31T05:49:26.940Z,27.07
2019-03-31T05:50:30.099Z,26.73
2019-03-31T05:51:43.442Z,29.90
2019-03-31T05:52:46.817Z,25.62
2019-03-31T05:53:50.212Z,29.72
2019-03-31T05:54:53.512Z,25.32
2019-03-31T05:55:56.657Z,30.20
2019-03-31T05:57:00.086Z,31.12
2019-03-31T05:58:03.679Z,25.55
2019-03-31T05:59:07.010Z,35.17
2019-03-31T06:00:11.568Z,28.10
2019-03-31T06:01:14.969Z,36.17
2019-03-31T06:02:18.243Z,31.27
2019-03-31T06:03:21.394Z,31.87
2019-03-31T06:04:32.947Z,35.05
2019-03-31T06:05:29.658Z,39.25
2019-03-31T06:06:32.834Z,37.20
2019-03-31T06:07:35.982Z,31.40
2019-03-31T06:08:39.136Z,33.33
2019-03-31T06:09:42.458Z,32.15
2019-03-31T06:10:45.617Z,36.85
2019-03-31T06:11:48.804Z,33.28
2019-03-31T06:12:51.993Z,37.63
2019-03-31T06:13:55.182Z,35.20
2019-03-31T06:14:58.373Z,34.35
2019-03-31T06:16:01.588Z,35.55
2019-03-31T06:17:04.999Z,40.03
2019-03-31T06:18:08.469Z,33.58
2019-03-31T06:19:11.790Z,36.20
2019-03-31T06:20:15.068Z,42.90
2019-03-31T06:21:18.573Z,34.35
2019-03-31T06:22:21.918Z,33.75
2019-03-31T06:23:25.290Z,35.45
2019-03-31T06:24:28.451Z,35.75
2019-03-31T06:25:31.702Z,39.10
2019-03-31T06:26:34.862Z,33.88
2019-03-31T06:27:39.811Z,33.98
2019-03-31T06:28:43.285Z,37.30
2019-03-31T06:29:48.343Z,37.65
2019-03-31T06:30:51.556Z,31.60
2019-03-31T06:31:54.842Z,32.05
2019-03-31T06:32:58.247Z,33.75
2019-03-31T06:34:01.421Z,32.50
2019-03-31T06:35:04.795Z,29.42
2019-03-31T06:36:08.086Z,34.20
2019-03-31T06:37:11.242Z,35.45
2019-03-31T06:38:14.385Z,36.88
2019-03-31T06:39:17.858Z,38.15
2019-03-31T06:40:21.256Z,30.72
2019-03-31T06:41:24.880Z,33.75
2019-03-31T06:42:28.062Z,32.70
2019-03-31T06:43:31.684Z,33.30
2019-03-31T06:44:38.005Z,33.15
2019-03-31T06:45:39.897Z,35.08
2019-03-31T06:46:43.348Z,38.20
2019-03-31T06:47:46.847Z,36.20
2019-03-31T06:48:50.037Z,37.38
2019-03-31T06:49:53.391Z,36.05
2019-03-31T06:50:56.661Z,37.33
2019-03-31T06:52:00.061Z,35.98
2019-03-31T06:53:03.223Z,37.13
2019-03-31T06:54:06.667Z,42.20
2019-03-31T06:55:10.316Z,39.25
2019-03-31T06:56:13.768Z,35.78
2019-03-31T06:57:16.957Z,37.42
2019-03-31T06:58:20.842Z,39.35
2019-03-31T06:59:24.106Z,31.87
2019-03-31T07:00:27.239Z,34.20
2019-03-31T07:01:30.431Z,36.42
2019-03-31T07:02:33.617Z,36.03
2019-03-31T07:03:36.686Z,36.75
2019-03-31T07:04:39.834Z,36.60
2019-03-31T07:05:42.965Z,38.58
2019-03-31T07:06:46.122Z,39.35
2019-03-31T07:07:49.592Z,39.00
2019-03-31T07:08:53.035Z,41.85
2019-03-31T07:09:56.385Z,35.88
2019-03-31T07:10:59.535Z,36.83
2019-03-31T07:12:02.645Z,42.00
2019-03-31T07:13:05.804Z,39.08
2019-03-31T07:14:09.117Z,39.70
2019-03-31T07:15:13.024Z,41.28
2019-03-31T07:16:16.892Z,35.98
2019-03-31T07:17:20.499Z,35.52
2019-03-31T07:18:23.656Z,42.05
2019-03-31T07:19:27.141Z,36.77
2019-03-31T07:20:30.291Z,39.38
2019-03-31T07:21:33.424Z,40.58
2019-03-31T07:22:37.030Z,38.33
2019-03-31T07:23:40.501Z,37.93
2019-03-31T07:24:43.712Z,35.08
2019-03-31T07:25:46.845Z,34.03
2019-03-31T07:26:50.113Z,35.25
2019-03-31T07:27:53.337Z,38.02
2019-03-31T07:28:56.517Z,40.48
2019-03-31T07:30:00.076Z,37.30
2019-03-31T07:31:03.373Z,31.33
2019-03-31T07:32:07.018Z,41.02
2019-03-31T07:33:11.644Z,37.80
2019-03-31T07:34:15.019Z,36.40
2019-03-31T07:35:19.151Z,37.75
2019-03-31T07:36:22.536Z,38.08
2019-03-31T07:37:26.236Z,30.90
2019-03-31T07:38:38.784Z,34.85
2019-03-31T07:39:34.807Z,39.90
2019-03-31T07:40:38.390Z,36.30
2019-03-31T07:41:41.794Z,30.75
2019-03-31T07:42:45.632Z,41.90
2019-03-31T07:43:48.868Z,32.67
2019-03-31T07:44:52.102Z,38.75
2019-03-31T07:45:55.973Z,34.78
2019-03-31T07:46:59.519Z,33.35
2019-03-31T07:48:02.672Z,30.37
2019-03-31T07:49:05.845Z,36.75
2019-03-31T07:50:10.208Z,30.50
2019-03-31T07:51:13.474Z,33.45
2019-03-31T07:52:16.702Z,29.52
2019-03-31T07:53:19.773Z,32.05
2019-03-31T07:54:23.047Z,34.58
2019-03-31T07:55:26.234Z,33.83
2019-03-31T07:56:29.405Z,34.90
2019-03-31T07:57:32.787Z,29.72
2019-03-31T07:58:35.988Z,30.88
2019-03-31T07:59:39.431Z,29.72
2019-03-31T08:00:42.653Z,27.20
2019-03-31T08:01:46.077Z,32.45
2019-03-31T08:02:49.490Z,27.02
2019-03-31T08:03:52.683Z,31.57
2019-03-31T08:04:57.150Z,26.65
2019-03-31T08:06:00.384Z,27.93
2019-03-31T08:07:03.496Z,28.85
2019-03-31T08:08:08.722Z,28.20
2019-03-31T08:09:12.307Z,27.10
2019-03-31T08:10:17.606Z,25.32
2019-03-31T08:11:20.957Z,25.62
2019-03-31T08:12:24.325Z,27.42
2019-03-31T08:13:28.025Z,27.30
2019-03-31T08:14:31.322Z,24.00
2019-03-31T08:15:34.523Z,29.23
2019-03-31T08:16:38.220Z,30.92
2019-03-31T08:17:42.927Z,28.17
2019-03-31T08:18:46.460Z,22.00
2019-03-31T08:19:49.730Z,24.43
2019-03-31T08:20:53.028Z,23.27
2019-03-31T08:21:56.207Z,30.82
2019-03-31T08:22:59.566Z,23.00
2019-03-31T08:24:06.511Z,25.00
2019-03-31T08:25:10.359Z,22.40
2019-03-31T08:26:13.655Z,23.85
2019-03-31T08:27:17.018Z,26.48
2019-03-31T08:28:20.204Z,22.65
2019-03-31T08:29:23.611Z,22.87
2019-03-31T08:30:26.763Z,23.15
2019-03-31T08:31:29.930Z,20.90
2019-03-31T08:32:33.255Z,23.83
2019-03-31T08:33:36.547Z,21.12
2019-03-31T08:34:40.053Z,23.75
2019-03-31T08:35:47.502Z,22.58
2019-03-31T08:36:49.411Z,26.68
2019-03-31T08:37:52.769Z,22.82
2019-03-31T08:38:56.084Z,23.05
2019-03-31T08:39:59.264Z,21.30
2019-03-31T08:41:02.550Z,19.12
2019-03-31T08:42:05.738Z,20.85
2019-03-31T08:43:09.289Z,21.95
2019-03-31T08:44:12.561Z,18.52
2019-03-31T08:45:17.150Z,18.95
2019-03-31T08:46:20.413Z,22.22
2019-03-31T08:47:23.948Z,22.22
2019-03-31T08:48:27.127Z,18.42
2019-03-31T08:49:30.907Z,22.85
2019-03-31T08:50:34.922Z,17.37
2019-03-31T08:51:38.641Z,20.50
2019-03-31T08:52:42.019Z,19.07
2019-03-31T08:53:45.400Z,16.52
2019-03-31T08:54:48.586Z,19.52
2019-03-31T08:55:52.070Z,18.00
2019-03-31T08:56:55.222Z,18.87
2019-03-31T08:57:58.387Z,17.90
2019-03-31T08:59:01.667Z,17.80
2019-03-31T09:00:06.074Z,22.00
2019-03-31T09:01:14.363Z,17.00
2019-03-31T09:02:36.075Z,20.55
2019-03-31T09:03:39.639Z,15.72
2019-03-31T09:04:42.847Z,13.53
2019-03-31T09:06:00.652Z,12.33
2019-03-31T09:06:51.850Z,14.78
2019-03-31T09:07:55.208Z,12.47
2019-03-31T09:08:58.806Z,15.83
2019-03-31T09:10:02.178Z,15.60
2019-03-31T09:11:05.435Z,12.80
2019-03-31T09:12:08.850Z,13.98
2019-03-31T09:13:12.417Z,9.68
2019-03-31T09:14:15.943Z,11.00
2019-03-31T09:15:20.134Z,16.62
2019-03-31T09:16:23.461Z,11.90
2019-03-31T09:17:26.787Z,12.13
2019-03-31T09:18:30.263Z,13.80
2019-03-31T09:19:33.967Z,10.65
2019-03-31T09:20:37.144Z,10.08
2019-03-31T09:21:40.572Z,10.35
2019-03-31T09:22:43.875Z,13.58
2019-03-31T09:23:47.467Z,11.43
2019-03-31T09:24:50.992Z,10.55
2019-03-31T09:25:54.259Z,13.08
2019-03-31T09:26:57.701Z,17.17
2019-03-31T09:28:02.242Z,13.83
2019-03-31T09:29:06.776Z,12.28
2019-03-31T09:30:12.235Z,15.15
2019-03-31T09:31:15.395Z,10.95
2019-03-31T09:32:18.703Z,13.68
2019-03-31T09:33:22.104Z,11.95
2019-03-31T09:34:25.636Z,10.18
2019-03-31T09:35:28.971Z,10.32
2019-03-31T09:36:32.159Z,11.50
2019-03-31T09:37:35.551Z,11.57
2019-03-31T09:38:38.744Z,9.68
2019-03-31T09:39:42.136Z,9.70
2019-03-31T09:40:45.498Z,11.00
2019-03-31T09:41:48.659Z,9.85
2019-03-31T09:42:51.841Z,12.18
2019-03-31T09:43:55.090Z,9.50
2019-03-31T09:44:58.326Z,15.72
2019-03-31T09:46:01.624Z,7.40
2019-03-31T09:47:05.090Z,11.30
2019-03-31T09:48:08.252Z,10.43
2019-03-31T09:49:11.451Z,11.30
2019-03-31T09:50:17.162Z,11.33
2019-03-31T09:51:20.469Z,8.28
2019-03-31T09:52:24.054Z,7.95
2019-03-31T09:53:27.708Z,8.48
2019-03-31T09:54:30.865Z,8.80
2019-03-31T09:55:34.145Z,8.10
2019-03-31T09:56:37.507Z,9.80
2019-03-31T09:57:40.703Z,9.13
2019-03-31T09:58:44.233Z,8.65
2019-03-31T09:59:47.519Z,8.18
2019-03-31T10:00:52.431Z,7.08
2019-03-31T10:01:56.905Z,7.08
2019-03-31T10:03:01.239Z,8.00
2019-03-31T10:04:04.663Z,8.03
2019-03-31T10:05:08.351Z,10.68
2019-03-31T10:06:11.517Z,6.40
2019-03-31T10:07:14.811Z,9.28
2019-03-31T10:08:22.012Z,5.78
2019-03-31T10:09:24.599Z,5.83
2019-03-31T10:10:31.585Z,7.33
2019-03-31T10:11:35.403Z,6.58
2019-03-31T10:12:38.573Z,9.73
2019-03-31T10:13:41.884Z,6.95
2019-03-31T10:14:45.068Z,7.67
2019-03-31T10:15:48.816Z,6.90
2019-03-31T10:16:52.352Z,8.78
2019-03-31T10:17:55.543Z,7.85
2019-03-31T10:18:58.853Z,10.88
2019-03-31T10:20:02.667Z,8.23
2019-03-31T10:21:06.233Z,7.83
2019-03-31T10:22:09.428Z,8.45
2019-03-31T10:23:12.601Z,8.83
2019-03-31T10:24:15.947Z,9.53
2019-03-31T10:25:19.325Z,6.50
2019-03-31T10:26:31.921Z,7.53
2019-03-31T10:27:27.665Z,7.12
2019-03-31T10:28:31.040Z,9.43
2019-03-31T10:29:34.306Z,10.28
2019-03-31T10:30:37.977Z,5.65
2019-03-31T10:31:41.144Z,7.45
2019-03-31T10:32:44.275Z,6.28
2019-03-31T10:33:47.752Z,7.28
2019-03-31T10:34:50.999Z,8.28
2019-03-31T10:35:54.425Z,6.20
2019-03-31T10:36:58.178Z,7.87
2019-03-31T10:38:01.645Z,10.70
2019-03-31T10:39:07.272Z,9.68
2019-03-31T10:40:10.848Z,5.70
2019-03-31T10:41:14.347Z,7.55
2019-03-31T10:42:18.067Z,7.10
2019-03-31T10:43:21.294Z,7.72
2019-03-31T10:44:24.675Z,8.90
2019-03-31T10:45:28.062Z,7.35
2019-03-31T10:46:31.414Z,6.15
2019-03-31T10:47:34.731Z,7.45
2019-03-31T10:48:37.877Z,6.72
2019-03-31T10:49:42.363Z,9.65
2019-03-31T10:50:45.586Z,6.35
2019-03-31T10:51:49.018Z,7.47
2019-03-31T10:52:52.263Z,8.43
2019-03-31T10:53:55.550Z,8.75
2019-03-31T10:54:59.041Z,11.18
2019-03-31T10:56:02.602Z,6.12
2019-03-31T10:57:05.824Z,8.03
2019-03-31T10:58:09.095Z,9.93
2019-03-31T10:59:12.516Z,8.25
2019-03-31T11:00:19.838Z,7.45
2019-03-31T11:01:23.192Z,7.00
2019-03-31T11:02:26.735Z,7.03
2019-03-31T11:03:33.074Z,8.75
2019-03-31T11:04:35.557Z,10.38
2019-03-31T11:05:38.779Z,7.65
2019-03-31T11:06:42.379Z,7.85
2019-03-31T11:07:45.899Z,10.75
2019-03-31T11:08:50.568Z,11.20
2019-03-31T11:09:53.943Z,6.87
2019-03-31T11:10:57.393Z,8.03
2019-03-31T11:12:00.598Z,9.08
2019-03-31T11:13:04.258Z,11.50
2019-03-31T11:14:07.753Z,8.23
2019-03-31T11:15:11.132Z,9.38
2019-03-31T11:16:14.368Z,10.25
2019-03-31T11:17:17.520Z,8.93
2019-03-31T11:18:20.722Z,7.33
2019-03-31T11:19:24.136Z,7.97
2019-03-31T11:20:27.327Z,7.87
2019-03-31T11:21:36.060Z,7.97
2019-03-31T11:22:47.090Z,12.40
2019-03-31T11:23:50.541Z,12.50
2019-03-31T11:24:53.676Z,9.58
2019-03-31T11:25:56.879Z,11.12
2019-03-31T11:27:00.197Z,9.73
2019-03-31T11:28:03.597Z,10.90
2019-03-31T11:29:08.590Z,10.00
2019-03-31T11:30:12.269Z,10.40
2019-03-31T11:31:17.940Z,8.35
2019-03-31T11:32:20.849Z,7.12
2019-03-31T11:33:24.080Z,9.83
2019-03-31T11:34:27.245Z,10.88
2019-03-31T11:35:30.441Z,9.85
2019-03-31T11:36:33.794Z,11.97
2019-03-31T11:37:37.018Z,10.58
2019-03-31T11:38:40.499Z,12.43
2019-03-31T11:39:43.950Z,13.93
2019-03-31T11:40:47.547Z,10.82
2019-03-31T11:41:50.741Z,13.28
2019-03-31T11:42:53.993Z,7.97
2019-03-31T11:43:57.408Z,7.05
2019-03-31T11:45:00.921Z,10.90
2019-03-31T11:46:04.208Z,11.38
2019-03-31T11:47:07.417Z,12.25
2019-03-31T11:48:12.089Z,9.28
2019-03-31T11:49:15.595Z,10.60
2019-03-31T11:50:22.537Z,8.43
2019-03-31T11:51:25.699Z,11.08
2019-03-31T11:52:28.960Z,10.30
2019-03-31T11:53:32.284Z,12.45
2019-03-31T11:54:35.550Z,12.15
2019-03-31T11:55:38.723Z,10.13
2019-03-31T11:56:42.097Z,11.43
2019-03-31T11:57:45.318Z,11.63
2019-03-31T11:58:48.707Z,10.30
2019-03-31T11:59:51.879Z,9.50
2019-03-31T12:00:56.506Z,11.70
2019-03-31T12:01:59.652Z,8.15
2019-03-31T12:03:03.068Z,11.15
2019-03-31T12:04:06.725Z,12.90
2019-03-31T12:05:10.279Z,9.18
2019-03-31T12:06:13.663Z,8.48
2019-03-31T12:07:27.331Z,9.63
2019-03-31T12:08:21.991Z,8.88
2019-03-31T12:09:25.276Z,9.40
2019-03-31T12:10:28.833Z,7.80
2019-03-31T12:11:32.029Z,10.70
2019-03-31T12:12:35.396Z,7.55
2019-03-31T12:13:38.903Z,10.65
2019-03-31T12:14:42.171Z,10.43
2019-03-31T12:15:45.405Z,11.00
2019-03-31T12:16:48.614Z,8.35
2019-03-31T12:17:51.930Z,7.92
2019-03-31T12:18:55.100Z,6.65
2019-03-31T12:19:58.601Z,6.95
2019-03-31T12:21:01.944Z,8.85
2019-03-31T12:22:05.361Z,5.58
2019-03-31T12:23:08.585Z,7.53
2019-03-31T12:24:11.793Z,7.78
2019-03-31T12:25:15.056Z,8.48
2019-03-31T12:26:18.369Z,10.08
2019-03-31T12:27:21.589Z,7.10
2019-03-31T12:28:24.784Z,7.42
2019-03-31T12:29:27.985Z,6.58
2019-03-31T12:30:31.243Z,6.83
2019-03-31T12:31:34.463Z,6.75
2019-03-31T12:32:38.693Z,5.42
2019-03-31T12:33:42.172Z,8.83
2019-03-31T12:34:45.358Z,6.12
2019-03-31T12:35:49.170Z,5.47
2019-03-31T12:36:52.529Z,7.22
2019-03-31T12:37:55.741Z,6.37
2019-03-31T12:38:58.902Z,7.42
2019-03-31T12:40:02.502Z,6.70
2019-03-31T12:41:05.810Z,4.97
2019-03-31T12:42:09.669Z,6.65
2019-03-31T12:43:13.211Z,5.90
2019-03-31T12:44:16.561Z,6.00
2019-03-31T12:45:19.707Z,6.03
2019-03-31T12:46:22.881Z,5.33
2019-03-31T12:47:26.045Z,4.92
2019-03-31T12:48:31.581Z,4.75
2019-03-31T12:49:35.356Z,5.00
2019-03-31T12:50:38.633Z,5.28
2019-03-31T12:51:42.229Z,5.80
2019-03-31T12:52:50.944Z,7.75
2019-03-31T12:53:56.870Z,6.37
2019-03-31T12:55:00.362Z,4.42
2019-03-31T12:56:05.639Z,10.25
2019-03-31T12:57:08.824Z,5.03
2019-03-31T12:58:12.019Z,8.33
2019-03-31T12:59:15.250Z,6.10
2019-03-31T13:00:18.589Z,6.45
2019-03-31T13:01:22.030Z,5.92
2019-03-31T13:02:25.292Z,5.85
2019-03-31T13:03:28.569Z,5.85
2019-03-31T13:04:31.728Z,5.97
2019-03-31T13:05:35.172Z,4.42
2019-03-31T13:06:38.649Z,6.92
2019-03-31T13:07:55.444Z,5.17
2019-03-31T13:08:47.090Z,5.35
2019-03-31T13:09:50.315Z,5.50
2019-03-31T13:10:53.656Z,5.90
2019-03-31T13:11:56.931Z,4.60
2019-03-31T13:13:00.133Z,4.90
2019-03-31T13:14:03.761Z,4.25
2019-03-31T13:15:07.271Z,5.60
2019-03-31T13:16:10.443Z,5.92
2019-03-31T13:17:13.852Z,6.00
2019-03-31T13:18:17.241Z,6.05
2019-03-31T13:19:20.731Z,5.87
2019-03-31T13:20:24.059Z,5.80
2019-03-31T13:21:27.231Z,5.37
2019-03-31T13:22:30.787Z,5.37
2019-03-31T13:23:33.946Z,4.75
2019-03-31T13:24:37.346Z,5.97
2019-03-31T13:25:40.641Z,4.65
2019-03-31T13:26:43.878Z,5.20
2019-03-31T13:27:47.166Z,6.20
2019-03-31T13:28:50.342Z,4.85
2019-03-31T13:29:53.527Z,5.00
2019-03-31T13:30:58.128Z,5.12
2019-03-31T13:32:01.507Z,4.08
2019-03-31T13:33:04.932Z,4.62
2019-03-31T13:34:08.365Z,6.15
2019-03-31T13:35:12.232Z,4.87
2019-03-31T13:36:15.512Z,4.62
2019-03-31T13:37:19.994Z,3.70
2019-03-31T13:38:23.157Z,5.22
2019-03-31T13:39:26.661Z,6.87
2019-03-31T13:40:29.987Z,4.35
2019-03-31T13:41:33.196Z,4.55
2019-03-31T13:42:36.710Z,4.40
2019-03-31T13:43:40.181Z,3.08
2019-03-31T13:44:43.413Z,5.58
2019-03-31T13:45:46.602Z,5.95
2019-03-31T13:46:49.987Z,3.92